LGRP/RHO METAR and TAF weather

Enter ICAO airport designator
Station Type Date Time Source
LGRP METAR 2019/11/22 00:50 UTC NOAA

LGRP 220050Z VRB03KT 9999 FEW020 17/15 Q1014 NOSIG


Station Type Date Time Source
LGRP Decoded METAR 2019/11/22 00:50 UTC NOAA

Rhodes Airport , Greece (LGRP) 36-24N 028-05E 11M
Nov 21, 2019 - 07:50 PM EST / 2019.11.22 0050 UTC
Wind: Variable at 3 MPH (3 KT):0
Visibility: greater than 7 mile(s):0
Sky conditions: mostly clear
Temperature: 62 F (17 C)
Dew Point: 59 F (15 C)
Relative Humidity: 88%
Pressure (altimeter): 29.94 in. Hg (1014 hPa)
ob: LGRP 220050Z VRB03KT 9999 FEW020 17/15 Q1014 NOSIG
cycle: 1

Station Type Date Time Source
LGRP TAF 2019/11/21 18:15 UTC NOAA

TAF LGRP 211700Z 2118/2218 VRB03KT 9999 FEW020 PROB30
TEMPO 2121/2210 5000 RA FEW010 BKN020 PROB40
TEMPO 2200/2210 5000 TSRA FEW010 FEW018CB BKN020
BECMG 2119/2121 16010KT

Example: see airport list